createdAt,value
2023-01-10T00:01:10.110Z,100898.47
2023-01-10T00:04:13.961Z,100898.28
2023-01-10T00:07:16.664Z,100914.66
2023-01-10T00:10:18.951Z,100895.25
2023-01-10T00:13:24.663Z,100900.44
2023-01-10T00:16:27.735Z,100896.19
2023-01-10T00:19:31.007Z,100886.94
2023-01-10T00:22:33.581Z,100890.47
2023-01-10T00:25:36.771Z,100878.88
2023-01-10T00:28:39.974Z,100891.91
2023-01-10T00:31:42.398Z,100903.06
2023-01-10T00:34:45.375Z,100894.31
2023-01-10T00:37:48.320Z,100894.09
2023-01-10T00:40:50.883Z,100893.34
2023-01-10T00:43:59.877Z,100880.13
2023-01-10T00:47:02.911Z,100889.94
2023-01-10T00:50:08.899Z,100880.97
2023-01-10T00:53:12.587Z,100898.41
2023-01-10T00:56:15.067Z,100900.28
2023-01-10T00:59:17.451Z,100889.66
2023-01-10T01:02:19.891Z,100890.16
2023-01-10T01:05:22.548Z,100889.25
2023-01-10T01:08:24.726Z,100890.84
2023-01-10T01:11:27.179Z,100873.81
2023-01-10T01:14:29.749Z,100881.88
2023-01-10T01:17:39.977Z,100869.81
2023-01-10T01:20:43.170Z,100877.41
2023-01-10T01:23:45.361Z,100862.88
2023-01-10T01:26:48.419Z,100868.94
2023-01-10T01:29:51.123Z,100847.84
2023-01-10T01:32:53.568Z,100862.00
2023-01-10T01:35:56.366Z,100860.34
2023-01-10T01:39:00.034Z,100861.09
2023-01-10T01:42:02.923Z,100850.19
2023-01-10T01:45:20.133Z,100856.25
2023-01-10T01:48:27.566Z,100834.59
2023-01-10T01:51:31.469Z,100841.78
2023-01-10T01:54:34.767Z,100829.19
2023-01-10T01:57:37.822Z,100841.34
2023-01-10T02:00:40.145Z,100833.59
2023-01-10T02:03:47.613Z,100840.47
2023-01-10T02:06:55.596Z,100816.13
2023-01-10T02:10:12.199Z,100822.38
2023-01-10T02:13:16.380Z,100836.75
2023-01-10T02:16:19.796Z,100827.06
2023-01-10T02:19:25.259Z,100831.56
2023-01-10T02:22:48.286Z,100822.38
2023-01-10T02:25:56.167Z,100831.50
2023-01-10T02:29:16.649Z,100823.94
2023-01-10T02:32:48.002Z,100807.25
2023-01-10T02:36:05.810Z,100809.81
2023-01-10T02:39:22.962Z,100800.66
2023-01-10T02:42:48.722Z,100805.81
2023-01-10T02:45:59.758Z,100812.41
2023-01-10T02:49:02.809Z,100803.69
2023-01-10T02:52:04.973Z,100801.13
2023-01-10T02:55:08.372Z,100791.88
2023-01-10T02:58:28.252Z,100804.59
2023-01-10T03:01:58.162Z,100791.22
2023-01-10T03:05:19.603Z,100780.97
2023-01-10T03:08:34.484Z,100791.44
2023-01-10T03:11:41.490Z,100789.47
2023-01-10T03:14:46.629Z,100782.59
2023-01-10T03:17:55.664Z,100795.56
2023-01-10T03:20:59.889Z,100787.28
2023-01-10T03:24:08.164Z,100774.50
2023-01-10T03:27:19.385Z,100798.13
2023-01-10T03:30:38.818Z,100811.22
2023-01-10T03:33:42.159Z,100783.09
2023-01-10T03:37:03.547Z,100799.81
2023-01-10T03:40:23.686Z,100795.72
2023-01-10T03:43:55.586Z,100789.28
2023-01-10T03:47:05.384Z,100797.22
2023-01-10T03:50:23.442Z,100784.72
2023-01-10T03:53:25.646Z,100781.19
2023-01-10T03:56:28.462Z,100767.63
2023-01-10T03:59:30.798Z,100782.91
2023-01-10T04:02:33.243Z,100782.59
2023-01-10T04:05:36.074Z,100772.47
2023-01-10T04:08:38.431Z,100764.72
2023-01-10T04:11:40.493Z,100762.84
2023-01-10T04:14:43.054Z,100752.28
2023-01-10T04:17:45.940Z,100751.53
2023-01-10T04:20:47.936Z,100751.69
2023-01-10T04:23:50.097Z,100747.38
2023-01-10T04:26:52.311Z,100754.63
2023-01-10T04:29:54.419Z,100754.91
2023-01-10T04:32:56.659Z,100762.66
2023-01-10T04:35:58.935Z,100766.22
2023-01-10T04:39:01.555Z,100764.47
2023-01-10T04:42:04.772Z,100754.59
2023-01-10T04:45:12.626Z,100744.00
2023-01-10T04:48:15.082Z,100757.19
2023-01-10T04:51:19.987Z,100759.44
2023-01-10T04:54:22.883Z,100755.22
2023-01-10T04:57:24.991Z,100756.72
2023-01-10T05:00:27.322Z,100757.56
2023-01-10T05:03:29.668Z,100779.03
2023-01-10T05:06:32.349Z,100769.50
2023-01-10T05:09:35.156Z,100773.28
2023-01-10T05:12:37.169Z,100777.22
2023-01-10T05:15:39.265Z,100773.88
2023-01-10T05:18:41.572Z,100772.00
2023-01-10T05:21:43.700Z,100781.50
2023-01-10T05:24:45.720Z,100768.38
2023-01-10T05:27:47.860Z,100776.19
2023-01-10T05:30:50.235Z,100788.97
2023-01-10T05:33:52.814Z,100781.88
2023-01-10T05:36:56.591Z,100762.28
2023-01-10T05:40:00.178Z,100780.91
2023-01-10T05:43:03.104Z,100788.53
2023-01-10T05:46:05.602Z,100781.19
2023-01-10T05:49:07.785Z,100789.41
2023-01-10T05:52:12.410Z,100783.16
2023-01-10T05:55:17.531Z,100775.69
2023-01-10T05:58:20.010Z,100787.38
2023-01-10T06:01:26.002Z,100772.00
2023-01-10T06:04:28.058Z,100788.97
2023-01-10T06:07:35.988Z,100776.84
2023-01-10T06:10:40.156Z,100775.69
2023-01-10T06:13:43.374Z,100782.97
2023-01-10T06:16:46.696Z,100771.09
2023-01-10T06:19:49.020Z,100778.44
2023-01-10T06:22:51.591Z,100786.44
2023-01-10T06:25:53.654Z,100787.91
2023-01-10T06:28:55.803Z,100785.22
2023-01-10T06:31:58.008Z,100784.34
2023-01-10T06:35:00.116Z,100795.47
2023-01-10T06:38:04.029Z,100803.34
2023-01-10T06:41:13.258Z,100793.19
2023-01-10T06:44:15.415Z,100777.72
2023-01-10T06:47:19.663Z,100770.69
2023-01-10T06:50:22.854Z,100783.75
2023-01-10T06:53:25.592Z,100768.59
2023-01-10T06:56:27.836Z,100773.28
2023-01-10T06:59:29.992Z,100776.50
2023-01-10T07:02:32.952Z,100788.59
2023-01-10T07:05:36.204Z,100754.09
2023-01-10T07:08:39.968Z,100784.56
2023-01-10T07:11:42.149Z,100770.56
2023-01-10T07:14:44.415Z,100777.13
2023-01-10T07:17:46.407Z,100769.03
2023-01-10T07:20:48.571Z,100793.03
2023-01-10T07:23:51.089Z,100798.66
2023-01-10T07:26:57.991Z,100782.59
2023-01-10T07:30:00.843Z,100761.72
2023-01-10T07:33:06.659Z,100789.06
2023-01-10T07:36:08.844Z,100781.78
2023-01-10T07:39:11.272Z,100781.22
2023-01-10T07:42:14.547Z,100777.09
2023-01-10T07:45:18.678Z,100776.41
2023-01-10T07:48:21.368Z,100779.13
2023-01-10T07:51:23.829Z,100775.78
2023-01-10T07:54:26.574Z,100778.16
2023-01-10T07:57:31.038Z,100773.06
2023-01-10T08:00:32.999Z,100775.78
2023-01-10T08:03:35.808Z,100770.81
2023-01-10T08:06:37.951Z,100780.56
2023-01-10T08:09:39.966Z,100781.22
2023-01-10T08:12:42.091Z,100776.09
2023-01-10T08:15:47.645Z,100779.09
2023-01-10T08:18:49.851Z,100779.69
2023-01-10T08:21:51.895Z,100779.78
2023-01-10T08:24:54.200Z,100780.34
2023-01-10T08:27:57.004Z,100775.88
2023-01-10T08:30:59.272Z,100796.22
2023-01-10T08:34:01.413Z,100789.75
2023-01-10T08:37:03.628Z,100793.69
2023-01-10T08:40:06.345Z,100801.53
2023-01-10T08:43:12.147Z,100812.59
2023-01-10T08:46:14.380Z,100818.31
2023-01-10T08:49:16.611Z,100818.69
2023-01-10T08:52:19.063Z,100826.34
2023-01-10T08:55:22.790Z,100819.25
2023-01-10T08:58:24.825Z,100816.69
2023-01-10T09:04:32.799Z,100820.41
2023-01-10T09:07:36.407Z,100819.97
2023-01-10T09:10:38.406Z,100806.97
2023-01-10T09:16:43.530Z,100811.72
2023-01-10T09:19:46.279Z,100810.69
2023-01-10T09:22:48.435Z,100814.78
2023-01-10T09:25:54.278Z,100814.03
2023-01-10T09:28:58.998Z,100780.59
2023-01-10T09:32:01.409Z,100790.78
2023-01-10T09:35:06.121Z,100799.75
2023-01-10T09:38:11.975Z,100798.72
2023-01-10T09:41:51.940Z,100807.81
2023-01-10T09:45:03.761Z,100797.44
2023-01-10T09:48:14.889Z,100800.91
2023-01-10T09:51:42.657Z,100789.53
2023-01-10T09:54:46.182Z,100794.88
2023-01-10T09:57:49.149Z,100778.34
2023-01-10T10:01:05.632Z,100765.53
2023-01-10T10:04:37.588Z,100773.88
2023-01-10T10:07:44.057Z,100769.06
2023-01-10T10:11:11.405Z,100780.84
2023-01-10T10:14:42.593Z,100794.84
2023-01-10T10:17:51.713Z,100775.63
2023-01-10T10:21:01.807Z,100793.75
2023-01-10T10:24:29.816Z,100809.78
2023-01-10T10:27:39.436Z,100811.84
2023-01-10T10:31:00.482Z,100815.03
2023-01-10T10:34:05.339Z,100815.06
2023-01-10T10:37:19.486Z,100797.25
2023-01-10T10:40:26.338Z,100799.22
2023-01-10T10:43:36.908Z,100788.75
2023-01-10T10:46:39.890Z,100806.38
2023-01-10T10:49:59.879Z,100803.47
2023-01-10T10:53:05.039Z,100803.69
2023-01-10T10:56:14.039Z,100806.53
2023-01-10T10:59:20.352Z,100793.16
2023-01-10T11:02:38.077Z,100794.31
2023-01-10T11:05:43.510Z,100802.56
2023-01-10T11:08:47.676Z,100796.13
2023-01-10T11:11:52.541Z,100789.53
2023-01-10T11:14:55.468Z,100795.09
2023-01-10T11:18:33.064Z,100789.47
2023-01-10T11:21:38.905Z,100798.53
2023-01-10T11:24:53.441Z,100784.03
2023-01-10T11:28:04.436Z,100788.94
2023-01-10T11:31:15.272Z,100780.47
2023-01-10T11:34:30.289Z,100773.88
2023-01-10T11:37:36.420Z,100760.53
2023-01-10T11:40:40.587Z,100764.59
2023-01-10T11:43:42.687Z,100767.06
2023-01-10T11:46:50.831Z,100761.59
2023-01-10T11:50:04.137Z,100760.06
2023-01-10T11:53:07.643Z,100786.19
2023-01-10T11:56:25.118Z,100776.81
2023-01-10T11:59:28.557Z,100768.94
2023-01-10T12:02:39.852Z,100755.19
2023-01-10T12:05:52.009Z,100757.91
2023-01-10T12:08:56.482Z,100768.53
2023-01-10T12:12:18.411Z,100762.66
2023-01-10T12:15:32.071Z,100771.97
2023-01-10T12:18:34.496Z,100755.63
2023-01-10T12:21:41.966Z,100776.00
2023-01-10T12:24:52.352Z,100776.88
2023-01-10T12:27:57.876Z,100786.09
2023-01-10T12:31:01.389Z,100767.53
2023-01-10T12:34:14.961Z,100789.69
2023-01-10T12:37:32.244Z,100794.47
2023-01-10T12:41:01.243Z,100801.53
2023-01-10T12:44:15.199Z,100784.66
2023-01-10T12:47:32.207Z,100790.59
2023-01-10T12:50:45.736Z,100788.59
2023-01-10T12:53:54.712Z,100825.63
2023-01-10T12:57:05.641Z,100818.13
2023-01-10T13:00:21.015Z,100801.41
2023-01-10T13:03:31.754Z,100824.19
2023-01-10T13:06:38.512Z,100819.94
2023-01-10T13:09:43.370Z,100810.22
2023-01-10T13:12:55.268Z,100815.94
2023-01-10T13:16:34.183Z,100830.94
2023-01-10T13:19:36.233Z,100812.94
2023-01-10T13:22:38.528Z,100826.09
2023-01-10T13:25:40.726Z,100826.94
2023-01-10T13:28:56.264Z,100826.50
2023-01-10T13:32:01.606Z,100834.13
2023-01-10T13:35:19.460Z,100849.78
2023-01-10T13:38:34.822Z,100856.84
2023-01-10T13:42:14.255Z,100850.47
2023-01-10T13:45:30.169Z,100872.91
2023-01-10T13:48:32.242Z,100829.97
2023-01-10T13:51:36.344Z,100853.72
2023-01-10T13:54:38.432Z,100852.19
2023-01-10T13:57:51.736Z,100854.84
2023-01-10T14:01:17.554Z,100860.34
2023-01-10T14:04:23.803Z,100857.22
2023-01-10T14:07:42.441Z,100883.66
2023-01-10T14:10:44.505Z,100862.16
2023-01-10T14:13:56.599Z,100875.75
2023-01-10T14:17:30.782Z,100877.22
2023-01-10T14:20:44.837Z,100877.41
2023-01-10T14:23:52.406Z,100886.47
2023-01-10T14:26:57.481Z,100874.50
2023-01-10T14:30:02.230Z,100878.56
2023-01-10T14:33:16.252Z,100897.25
2023-01-10T14:36:27.583Z,100891.09
2023-01-10T14:39:42.542Z,100903.03
2023-01-10T14:44:29.228Z,100923.72
2023-01-10T14:47:34.737Z,100921.88
2023-01-10T14:50:36.838Z,100921.19
2023-01-10T14:53:45.892Z,100907.53
2023-01-10T14:56:53.213Z,100910.81
2023-01-10T15:00:09.334Z,100878.28
2023-01-10T15:03:19.361Z,100883.78
2023-01-10T15:06:21.639Z,100878.13
2023-01-10T15:09:25.292Z,100873.75
2023-01-10T15:12:31.469Z,100892.00
2023-01-10T15:15:35.453Z,100891.72
2023-01-10T15:18:47.261Z,100901.84
2023-01-10T15:21:49.683Z,100898.06
2023-01-10T15:25:00.012Z,100911.41
2023-01-10T15:28:03.035Z,100915.72
2023-01-10T15:31:08.752Z,100906.59
2023-01-10T15:34:19.566Z,100908.16
2023-01-10T15:37:26.805Z,100922.03
2023-01-10T15:40:37.973Z,100904.44
2023-01-10T15:43:40.669Z,100916.22
2023-01-10T15:46:55.969Z,100935.56
2023-01-10T15:50:00.268Z,100927.22
2023-01-10T15:53:06.255Z,100934.91
2023-01-10T15:56:16.308Z,100936.75
2023-01-10T15:59:33.032Z,100936.69
2023-01-10T16:02:35.419Z,100932.22
2023-01-10T16:05:37.634Z,100927.88
2023-01-10T16:08:39.951Z,100938.16
2023-01-10T16:12:06.881Z,100955.06
2023-01-10T16:15:30.200Z,100934.72
2023-01-10T16:18:33.143Z,100948.72
2023-01-10T16:21:39.669Z,100960.19
2023-01-10T16:24:43.158Z,100925.84
2023-01-10T16:27:46.416Z,100957.09
2023-01-10T16:30:48.782Z,100963.19
2023-01-10T16:33:52.537Z,100953.78
2023-01-10T16:36:54.702Z,100959.91
2023-01-10T16:39:59.749Z,100975.19
2023-01-10T16:43:21.941Z,100981.66
2023-01-10T16:46:26.447Z,100971.63
2023-01-10T16:49:29.755Z,100989.22
2023-01-10T16:52:32.511Z,100996.97
2023-01-10T16:55:54.871Z,100998.44
2023-01-10T16:58:59.995Z,101000.88
2023-01-10T17:02:06.374Z,100991.38
2023-01-10T17:09:24.187Z,101011.81
2023-01-10T17:12:37.452Z,100986.94
2023-01-10T17:15:39.630Z,101018.50
2023-01-10T17:18:42.191Z,101024.88
2023-01-10T17:21:44.335Z,101012.22
2023-01-10T17:24:46.421Z,101004.13
2023-01-10T17:27:48.918Z,101024.09
2023-01-10T17:30:52.376Z,101019.91
2023-01-10T17:33:57.725Z,101043.06
2023-01-10T17:37:00.169Z,101038.59
2023-01-10T17:40:05.397Z,101050.97
2023-01-10T17:43:07.865Z,101051.56
2023-01-10T17:46:11.285Z,101054.91
2023-01-10T17:49:13.720Z,101056.41
2023-01-10T17:52:19.142Z,101023.84
2023-01-10T17:55:23.059Z,101053.06
2023-01-10T17:58:28.610Z,101076.75
2023-01-10T18:01:31.093Z,101060.00
2023-01-10T18:04:38.393Z,101066.13
2023-01-10T18:07:40.844Z,101076.31
2023-01-10T18:10:42.948Z,101081.22
2023-01-10T18:13:51.408Z,101083.69
2023-01-10T18:16:57.033Z,101088.22
2023-01-10T18:19:59.340Z,101093.47
2023-01-10T18:23:20.473Z,101108.34
2023-01-10T18:26:24.085Z,101115.19
2023-01-10T18:29:26.725Z,101112.50
2023-01-10T18:32:31.508Z,101121.34
2023-01-10T18:35:36.455Z,101122.94
2023-01-10T18:38:40.397Z,101121.03
2023-01-10T18:41:42.981Z,101106.94
2023-01-10T18:44:45.574Z,101092.19
2023-01-10T18:47:52.557Z,101132.56
2023-01-10T18:50:58.168Z,101117.41
2023-01-10T18:54:07.121Z,101144.69
2023-01-10T18:57:15.250Z,101131.25
2023-01-10T19:00:17.731Z,101132.09
2023-01-10T19:03:20.872Z,101120.75
2023-01-10T19:06:25.422Z,101116.75
2023-01-10T19:09:29.271Z,101134.28
2023-01-10T19:12:31.398Z,101157.06
2023-01-10T19:15:33.643Z,101162.75
2023-01-10T19:18:36.705Z,101175.34
2023-01-10T19:21:45.506Z,101179.09
2023-01-10T19:24:47.708Z,101154.16
2023-01-10T19:27:52.628Z,101199.81
2023-01-10T19:31:04.292Z,101197.97
2023-01-10T19:34:07.226Z,101209.78
2023-01-10T19:37:11.938Z,101216.59
2023-01-10T19:40:14.629Z,101213.56
2023-01-10T19:43:18.053Z,101219.59
2023-01-10T19:46:20.208Z,101232.78
2023-01-10T19:49:24.525Z,101209.13
2023-01-10T19:52:27.711Z,101229.22
2023-01-10T19:55:29.909Z,101231.00
2023-01-10T19:58:33.094Z,101231.28
2023-01-10T20:01:35.436Z,101237.38
2023-01-10T20:04:38.198Z,101239.66
2023-01-10T20:07:40.501Z,101233.53
2023-01-10T20:10:42.759Z,101243.13
2023-01-10T20:13:48.769Z,101258.97
2023-01-10T20:16:52.555Z,101260.53
2023-01-10T20:19:55.854Z,101264.09
2023-01-10T20:22:58.109Z,101267.97
2023-01-10T20:26:06.457Z,101240.50
2023-01-10T20:29:09.404Z,101282.63
2023-01-10T20:32:15.220Z,101247.88
2023-01-10T20:35:26.711Z,101250.69
2023-01-10T20:38:30.824Z,101279.34
2023-01-10T20:41:33.516Z,101276.56
2023-01-10T20:44:35.876Z,101300.97
2023-01-10T20:47:41.560Z,101301.47
2023-01-10T20:51:05.246Z,101292.78
2023-01-10T20:54:16.876Z,101232.88
2023-01-10T20:57:20.513Z,101257.22
2023-01-10T21:00:22.851Z,101285.91
2023-01-10T21:03:26.630Z,101300.72
2023-01-10T21:06:31.592Z,101312.22
2023-01-10T21:09:34.078Z,101320.00
2023-01-10T21:12:36.072Z,101313.94
2023-01-10T21:15:43.748Z,101310.53
2023-01-10T21:18:46.913Z,101277.22
2023-01-10T21:21:49.026Z,101320.72
2023-01-10T21:25:12.472Z,101308.84
2023-01-10T21:28:14.724Z,101326.63
2023-01-10T21:31:19.768Z,101311.31
2023-01-10T21:34:22.241Z,101338.91
2023-01-10T21:37:24.579Z,101346.06
2023-01-10T21:40:27.746Z,101335.13
2023-01-10T21:43:32.307Z,101363.59
2023-01-10T21:46:38.014Z,101357.69
2023-01-10T21:49:40.220Z,101346.75
2023-01-10T21:52:45.836Z,101332.97
2023-01-10T21:55:53.739Z,101331.84
2023-01-10T21:58:56.230Z,101338.22
2023-01-10T22:01:58.613Z,101327.91
2023-01-10T22:05:02.007Z,101307.75
2023-01-10T22:08:05.563Z,101304.69
2023-01-10T22:11:17.081Z,101327.91
2023-01-10T22:14:19.575Z,101322.22
2023-01-10T22:17:22.191Z,101306.16
2023-01-10T22:20:24.406Z,101350.56
2023-01-10T22:23:29.134Z,101334.28
2023-01-10T22:26:32.627Z,101342.91
2023-01-10T22:29:36.622Z,101340.91
2023-01-10T22:32:41.746Z,101344.09
2023-01-10T22:35:46.440Z,101357.03
2023-01-10T22:38:52.046Z,101346.03
2023-01-10T22:41:55.573Z,101359.47
2023-01-10T22:44:58.214Z,101396.59
2023-01-10T22:48:02.617Z,101381.34
2023-01-10T22:51:05.868Z,101413.06
2023-01-10T22:54:12.707Z,101429.22
2023-01-10T22:57:19.518Z,101416.22
2023-01-10T23:00:23.014Z,101434.09
2023-01-10T23:03:25.448Z,101431.19
2023-01-10T23:06:29.093Z,101448.75
2023-01-10T23:09:31.243Z,101444.25
2023-01-10T23:12:35.048Z,101468.25
2023-01-10T23:15:37.274Z,101467.13
2023-01-10T23:18:40.923Z,101481.19
2023-01-10T23:21:44.519Z,101467.38
2023-01-10T23:24:47.753Z,101477.88
2023-01-10T23:27:52.545Z,101493.19
2023-01-10T23:30:56.048Z,101475.91
2023-01-10T23:34:00.908Z,101495.72
2023-01-10T23:37:03.785Z,101495.41
2023-01-10T23:40:06.620Z,101488.63
2023-01-10T23:43:08.639Z,101487.63
2023-01-10T23:46:10.926Z,101482.56
2023-01-10T23:49:13.629Z,101474.09
2023-01-10T23:52:15.843Z,101486.63
2023-01-10T23:55:20.084Z,101478.88
2023-01-10T23:58:22.582Z,101497.13
